• Join FlightAware (Why Join?)
  • Login
  • US Flag 
02:41AM EDT


 

Airport Tracker/Info


-or-


 

Live Flight TrackerFlight Track Log ✈ CPT8773 ✈ 25-Jul-2013 ✈ KCPR - KCOD

Flight Track Log - Related Links

Times and Time Zones

All times are in EDT time to prevent confusion due to time zone crossing. See the CPT8773 flight status page for this flight to view local times or setup timezone preferences in your user account.

Time Position Orientation Groundspeed Altitude Reporting Facility
EDT Latitude Longitude Course Direction KTS MPH feet Rate Location/Type
09:11AM 43.0203 -106.5397 308° West 127 146 7,600  Level Denver Center
09:13AM 43.0867 -106.5831 335° Northwest 128 147 8,600 480 Climbing Denver Center
09:14AM 43.1225 -106.6067 334° Northwest 128 147 9,100 420 Climbing Denver Center
09:15AM 43.0913 -106.2806 308° West  Level FlightAware Approximate
09:15AM 43.1536 -106.6228 339° North 126 145 9,500  Level Denver Center
09:16AM 43.1160 -106.3238 308° West  Level FlightAware Approximate
09:16AM 43.1858 -106.6383 341° North 126 145 9,800  Level Denver Center
09:17AM 43.2222 -106.6581 338° Northwest 126 145 10,200 300 Climbing Denver Center
09:18AM 43.2567 -106.6731 342° North 131 151 10,500 240 Climbing Denver Center
09:19AM 43.2906 -106.6872 343° North 133 153 10,800 300 Climbing Denver Center
09:20AM 43.3297 -106.7111 336° Northwest 137 158 11,200 300 Climbing Denver Center
09:21AM 43.3453 -106.7506 298° West 128 147 11,500 240 Climbing Denver Center
09:22AM 43.3661 -106.7986 301° West 131 151 11,700 240 Climbing Denver Center
09:23AM 43.3878 -106.8364 308° West 131 151 12,000 120 Climbing Denver Center
09:24AM 43.4119 -106.8747 311° West 137 158 12,000  Level Denver Center
09:25AM 43.4372 -106.9272 304° West 142 163 12,000  Level Denver Center
09:26AM 43.4594 -106.9756 302° West 148 170 12,000 -60 Level Denver Center
09:27AM 43.4825 -107.0194 306° West 143 165 11,900  Descending Denver Center
09:28AM 43.5069 -107.0631 308° West 144 166 12,000  Climbing Denver Center
09:29AM 43.5300 -107.1072 306° West 143 165 12,000  Level Denver Center
09:30AM 43.5536 -107.1511 307° West 143 165 12,000  Level Denver Center
09:31AM 43.5750 -107.2008 301° West 147 169 12,000  Level Salt Lake Center
09:32AM 43.5975 -107.2458 305° West 145 167 12,000  Level Salt Lake Center
09:33AM 43.6264 -107.3000 306° West 146 168 12,000  Level Salt Lake Center
09:34AM 43.6497 -107.3428 307° West 144 166 12,000  Level Salt Lake Center
09:35AM 43.6736 -107.3894 305° West 145 167 12,000  Level Salt Lake Center
09:36AM 43.6958 -107.4344 304° West 144 166 12,000  Level Salt Lake Center
09:37AM 43.7192 -107.4783 306° West 143 165 12,000  Level Salt Lake Center
09:38AM 43.7431 -107.5228 307° West 143 165 12,000  Level Salt Lake Center
09:39AM 43.7667 -107.5703 305° West 146 168 12,000  Level Salt Lake Center
09:40AM 43.7894 -107.6167 304° West 146 168 12,000  Level Salt Lake Center
09:41AM 43.8181 -107.6711 306° West 146 168 12,000  Level Salt Lake Center
09:42AM 43.8411 -107.7164 305° West 146 168 12,000  Level Salt Lake Center
09:43AM 43.8639 -107.7622 305° West 145 167 12,000  Level Salt Lake Center
09:44AM 43.8881 -107.8067 307° West 145 167 12,000  Level Salt Lake Center
09:46AM 43.9119 -107.8525 306° West 145 167 12,000  Level Salt Lake Center
09:47AM 43.9344 -107.8994 304° West 146 168 12,000  Level Salt Lake Center
09:48AM 43.9575 -107.9461 304° West 146 168 12,000  Level Salt Lake Center
09:49AM 43.9858 -107.9922 311° West 150 173 12,000  Level Salt Lake Center
09:50AM 44.0169 -108.0353 315° West 155 178 12,100  Climbing Salt Lake Center
09:51AM 44.0525 -108.0894 312° West 157 181 12,100  Level Salt Lake Center
09:52AM 44.0808 -108.1331 312° West 156 180 12,100 -60 Level Salt Lake Center
09:53AM 44.1108 -108.1783 313° West 156 180 12,000 -60 Descending Salt Lake Center
09:54AM 44.1397 -108.2228 312° West 156 180 12,000  Level Salt Lake Center
09:55AM 44.1683 -108.2672 312° West 155 178 12,000  Level Salt Lake Center
09:56AM 44.1969 -108.3103 313° West 154 177 12,000  Level Salt Lake Center
09:57AM 44.2244 -108.3533 312° West 152 175 12,000  Level Salt Lake Center
09:58AM 44.2525 -108.3969 312° West 151 174 12,000  Level Salt Lake Center
09:59AM 44.2867 -108.4489 313° West 151 174 12,000 -240 Level Salt Lake Center
10:00AM 44.3153 -108.4925 313° West 152 175 11,600 -660 Descending Salt Lake Center
10:01AM 44.3383 -108.5514 299° West 160 184 10,700 -840 Descending Salt Lake Center
10:02AM 44.3611 -108.6156 296° West 171 197 9,900 -840 Descending Salt Lake Center
10:03AM 44.3850 -108.6769 299° West 177 204 9,100 -480 Descending Salt Lake Center
10:04AM 44.4075 -108.7333 299° West 175 201 9,000 -60 Descending Salt Lake Center
10:05AM 44.4258 -108.7847 297° West 164 189 9,000 -60 Level Salt Lake Center
10:06AM 44.4483 -108.8442 298° West 153 176 8,900 -300 Descending Salt Lake Center
10:07AM 44.4647 -108.8975 293° West 151 174 8,400 -780 Descending Salt Lake Center
10:08AM 44.4725 -108.9606 280° West 158 182 7,400 -1,080 Descending Salt Lake Center
10:09AM 44.4825 -109.0178 284° West 157 181 6,200 -1,020 Descending Salt Lake Center
10:10AM 44.5117 -109.0456 326° Northwest 140 161 5,400 -780 Descending Salt Lake Center
10:12AM 44.5167 -109.0167 295° West  Level FlightAware Approximate